createdAt,value
2023-05-05T00:01:02.487Z,101514.47
2023-05-05T00:03:29.723Z,101504.81
2023-05-05T00:05:56.935Z,101518.84
2023-05-05T00:08:23.875Z,101513.66
2023-05-05T00:10:52.973Z,101518.19
2023-05-05T00:13:20.982Z,101504.94
2023-05-05T00:15:50.055Z,101522.22
2023-05-05T00:18:17.972Z,101523.97
2023-05-05T00:20:47.077Z,101503.94
2023-05-05T00:23:15.044Z,101493.19
2023-05-05T00:25:42.337Z,101501.41
2023-05-05T00:28:09.273Z,101493.72
2023-05-05T00:30:36.547Z,101510.50
2023-05-05T00:33:03.508Z,101511.31
2023-05-05T00:35:30.351Z,101510.81
2023-05-05T00:37:57.505Z,101517.50
2023-05-05T00:40:25.397Z,101512.66
2023-05-05T00:42:52.594Z,101517.94
2023-05-05T00:45:20.145Z,101515.00
2023-05-05T00:47:52.869Z,101504.41
2023-05-05T00:50:30.780Z,101492.50
2023-05-05T00:53:02.281Z,101472.84
2023-05-05T00:55:33.784Z,101469.47
2023-05-05T00:58:03.185Z,101464.31
2023-05-05T01:00:30.226Z,101458.75
2023-05-05T01:02:58.140Z,101448.72
2023-05-05T01:05:27.162Z,101445.13
2023-05-05T01:08:10.614Z,101448.66
2023-05-05T01:10:55.451Z,101433.91
2023-05-05T01:13:30.170Z,101434.72
2023-05-05T01:16:20.315Z,101440.00
2023-05-05T01:19:21.760Z,101438.00
2023-05-05T01:21:52.758Z,101443.09
2023-05-05T01:24:44.563Z,101442.50
2023-05-05T01:27:27.377Z,101452.34
2023-05-05T01:30:03.728Z,101453.06
2023-05-05T01:32:34.298Z,101460.28
2023-05-05T01:35:14.616Z,101452.75
2023-05-05T01:37:51.076Z,101464.72
2023-05-05T01:40:23.068Z,101459.47
2023-05-05T01:42:51.516Z,101460.69
2023-05-05T01:45:20.366Z,101455.81
2023-05-05T01:47:47.906Z,101460.50
2023-05-05T01:50:15.306Z,101441.44
2023-05-05T01:52:43.247Z,101458.09
2023-05-05T01:55:11.323Z,101459.78
2023-05-05T01:57:39.708Z,101468.69
2023-05-05T02:00:07.854Z,101476.16
2023-05-05T02:02:44.664Z,101487.94
2023-05-05T02:05:13.034Z,101488.94
2023-05-05T02:07:40.037Z,101498.28
2023-05-05T02:10:08.376Z,101517.16
2023-05-05T02:12:37.467Z,101511.25
2023-05-05T02:15:05.343Z,101508.31
2023-05-05T02:17:32.346Z,101515.84
2023-05-05T02:20:01.370Z,101511.22
2023-05-05T02:22:28.379Z,101517.56
2023-05-05T02:24:55.559Z,101511.88
2023-05-05T02:27:23.452Z,101508.84
2023-05-05T02:29:58.295Z,101515.13
2023-05-05T02:32:32.264Z,101513.38
2023-05-05T02:35:06.118Z,101506.53
2023-05-05T02:37:34.110Z,101499.25
2023-05-05T02:40:04.643Z,101497.16
2023-05-05T02:42:39.511Z,101496.63
2023-05-05T02:45:12.391Z,101496.84
2023-05-05T02:47:42.476Z,101503.19
2023-05-05T02:50:10.324Z,101498.41
2023-05-05T02:52:42.460Z,101499.56
2023-05-05T02:55:10.658Z,101509.78
2023-05-05T02:57:57.909Z,101503.19
2023-05-05T03:00:30.560Z,101498.16
2023-05-05T03:03:14.300Z,101498.31
2023-05-05T03:05:47.674Z,101489.78
2023-05-05T03:08:21.039Z,101492.38
2023-05-05T03:11:00.034Z,101504.47
2023-05-05T03:13:28.596Z,101504.03
2023-05-05T03:15:58.185Z,101509.63
2023-05-05T03:18:26.848Z,101505.63
2023-05-05T03:21:00.037Z,101508.16
2023-05-05T03:23:27.218Z,101508.63
2023-05-05T03:25:58.060Z,101521.06
2023-05-05T03:28:32.433Z,101515.66
2023-05-05T03:31:04.143Z,101523.13
2023-05-05T03:33:33.543Z,101516.56
2023-05-05T03:36:01.036Z,101517.38
2023-05-05T03:38:28.079Z,101512.97
2023-05-05T03:40:55.989Z,101517.53
2023-05-05T03:43:25.729Z,101513.97
2023-05-05T03:45:52.687Z,101498.44
2023-05-05T03:48:19.824Z,101492.47
2023-05-05T03:50:47.155Z,101501.59
2023-05-05T03:53:15.575Z,101506.56
2023-05-05T03:55:43.317Z,101509.63
2023-05-05T03:58:11.271Z,101521.97
2023-05-05T04:00:38.228Z,101529.81
2023-05-05T04:03:05.456Z,101531.78
2023-05-05T04:05:32.682Z,101539.03
2023-05-05T04:07:59.941Z,101529.75
2023-05-05T04:10:27.016Z,101537.66
2023-05-05T04:12:54.448Z,101541.09
2023-05-05T04:15:21.355Z,101543.25
2023-05-05T04:17:48.367Z,101543.16
2023-05-05T04:20:15.514Z,101545.84
2023-05-05T04:22:42.352Z,101549.38
2023-05-05T04:25:10.395Z,101547.31
2023-05-05T04:27:38.118Z,101550.56
2023-05-05T04:30:07.067Z,101549.81
2023-05-05T04:32:37.002Z,101558.41
2023-05-05T04:35:05.320Z,101561.66
2023-05-05T04:37:32.314Z,101572.72
2023-05-05T04:39:59.840Z,101582.06
2023-05-05T04:42:27.781Z,101584.44
2023-05-05T04:44:55.191Z,101580.81
2023-05-05T04:47:22.871Z,101587.81
2023-05-05T04:49:51.193Z,101591.31
2023-05-05T04:52:18.625Z,101593.75
2023-05-05T04:54:45.422Z,101589.75
2023-05-05T04:57:12.431Z,101596.47
2023-05-05T04:59:39.300Z,101594.28
2023-05-05T05:02:06.647Z,101601.09
2023-05-05T05:04:33.839Z,101597.75
2023-05-05T05:07:01.801Z,101597.66
2023-05-05T05:09:28.864Z,101596.22
2023-05-05T05:12:01.058Z,101592.88
2023-05-05T05:14:28.238Z,101595.06
2023-05-05T05:16:55.436Z,101594.84
2023-05-05T05:19:24.198Z,101606.84
2023-05-05T05:21:51.818Z,101604.88
2023-05-05T05:24:19.021Z,101603.72
2023-05-05T05:26:46.610Z,101606.03
2023-05-05T05:29:13.620Z,101610.91
2023-05-05T05:31:40.566Z,101609.09
2023-05-05T05:34:08.465Z,101619.41
2023-05-05T05:36:36.516Z,101619.25
2023-05-05T05:39:03.651Z,101616.75
2023-05-05T05:41:30.848Z,101623.59
2023-05-05T05:43:58.036Z,101618.47
2023-05-05T05:46:25.681Z,101623.75
2023-05-05T05:48:53.301Z,101617.84
2023-05-05T05:51:20.928Z,101611.31
2023-05-05T05:53:48.815Z,101626.19
2023-05-05T05:56:15.834Z,101614.13
2023-05-05T05:58:43.668Z,101611.63
2023-05-05T06:01:11.323Z,101612.22
2023-05-05T06:03:38.373Z,101606.25
2023-05-05T06:06:07.566Z,101613.47
2023-05-05T06:08:34.542Z,101612.97
2023-05-05T06:11:01.605Z,101614.63
2023-05-05T06:13:29.299Z,101619.91
2023-05-05T06:15:56.529Z,101636.09
2023-05-05T06:18:23.581Z,101630.47
2023-05-05T06:20:52.543Z,101629.03
2023-05-05T06:23:22.233Z,101623.69
2023-05-05T06:25:55.791Z,101635.06
2023-05-05T06:28:22.789Z,101638.06
2023-05-05T06:30:49.654Z,101634.56
2023-05-05T06:33:16.726Z,101637.19
2023-05-05T06:35:43.567Z,101632.94
2023-05-05T06:38:10.769Z,101635.84
2023-05-05T06:40:37.620Z,101644.75
2023-05-05T06:43:04.764Z,101641.13
2023-05-05T06:45:36.502Z,101633.78
2023-05-05T06:48:03.438Z,101639.81
2023-05-05T06:50:30.451Z,101644.00
2023-05-05T06:52:57.314Z,101638.44
2023-05-05T06:55:25.048Z,101635.72
2023-05-05T06:57:52.001Z,101635.53
2023-05-05T07:00:19.662Z,101634.34
2023-05-05T07:02:47.711Z,101638.16
2023-05-05T07:05:14.781Z,101644.31
2023-05-05T07:07:54.163Z,101649.41
2023-05-05T07:10:22.677Z,101654.53
2023-05-05T07:12:50.063Z,101648.84
2023-05-05T07:15:27.499Z,101650.13
2023-05-05T07:17:56.675Z,101648.38
2023-05-05T07:20:24.288Z,101653.66
2023-05-05T07:22:51.481Z,101658.81
2023-05-05T07:25:18.500Z,101657.16
2023-05-05T07:27:45.493Z,101648.84
2023-05-05T07:30:15.589Z,101648.50
2023-05-05T07:32:46.073Z,101650.88
2023-05-05T07:35:13.211Z,101651.28
2023-05-05T07:37:40.321Z,101653.25
2023-05-05T07:40:08.342Z,101652.13
2023-05-05T07:42:35.521Z,101653.88
2023-05-05T07:45:02.476Z,101650.78
2023-05-05T07:47:29.380Z,101649.28
2023-05-05T07:49:57.337Z,101634.88
2023-05-05T07:52:37.069Z,101637.16
2023-05-05T07:55:11.254Z,101639.94
2023-05-05T07:57:38.822Z,101642.78
2023-05-05T08:00:06.633Z,101652.50
2023-05-05T08:02:39.562Z,101660.84
2023-05-05T08:05:07.959Z,101665.72
2023-05-05T08:07:36.887Z,101662.59
2023-05-05T08:10:04.238Z,101666.25
2023-05-05T08:12:31.367Z,101665.84
2023-05-05T08:14:58.287Z,101663.94
2023-05-05T08:17:27.200Z,101662.78
2023-05-05T08:19:54.345Z,101668.03
2023-05-05T08:22:24.159Z,101666.81
2023-05-05T08:24:51.064Z,101675.69
2023-05-05T08:27:17.894Z,101672.44
2023-05-05T08:29:44.890Z,101678.16
2023-05-05T08:32:11.728Z,101680.16
2023-05-05T08:34:38.549Z,101682.97
2023-05-05T08:37:05.639Z,101689.84
2023-05-05T08:39:32.461Z,101685.00
2023-05-05T08:41:59.525Z,101680.16
2023-05-05T08:44:27.371Z,101683.38
2023-05-05T08:46:55.210Z,101687.81
2023-05-05T08:49:22.251Z,101683.78
2023-05-05T08:51:50.025Z,101686.56
2023-05-05T08:54:20.414Z,101680.56
2023-05-05T08:56:51.104Z,101684.59
2023-05-05T08:59:19.235Z,101701.56
2023-05-05T09:01:46.239Z,101699.13
2023-05-05T09:04:13.340Z,101696.31
2023-05-05T09:06:40.683Z,101695.91
2023-05-05T09:09:08.562Z,101697.91
2023-05-05T09:11:35.952Z,101699.91
2023-05-05T09:14:03.260Z,101705.63
2023-05-05T09:16:30.411Z,101695.88
2023-05-05T09:19:04.596Z,101706.69
2023-05-05T09:21:32.439Z,101702.72
2023-05-05T09:24:08.858Z,101699.13
2023-05-05T09:26:38.102Z,101705.53
2023-05-05T09:29:06.451Z,101705.59
2023-05-05T09:31:34.721Z,101705.91
2023-05-05T09:34:01.726Z,101709.41
2023-05-05T09:36:48.095Z,101710.59
2023-05-05T09:39:19.478Z,101710.72
2023-05-05T09:41:47.102Z,101712.66
2023-05-05T09:44:16.976Z,101713.41
2023-05-05T09:46:51.691Z,101712.41
2023-05-05T09:49:23.564Z,101731.38
2023-05-05T09:51:51.865Z,101719.81
2023-05-05T09:54:26.884Z,101719.53
2023-05-05T09:56:54.033Z,101709.75
2023-05-05T09:59:21.557Z,101719.78
2023-05-05T10:01:49.888Z,101722.16
2023-05-05T10:04:24.677Z,101734.88
2023-05-05T10:06:51.715Z,101731.16
2023-05-05T10:09:18.559Z,101726.94
2023-05-05T10:11:47.279Z,101729.50
2023-05-05T10:14:18.916Z,101730.06
2023-05-05T10:16:49.098Z,101728.59
2023-05-05T10:19:17.377Z,101725.34
2023-05-05T10:21:54.288Z,101733.38
2023-05-05T10:24:24.205Z,101733.34
2023-05-05T10:26:52.199Z,101730.28
2023-05-05T10:29:28.414Z,101734.19
2023-05-05T10:31:57.211Z,101724.25
2023-05-05T10:34:29.755Z,101726.88
2023-05-05T10:36:59.893Z,101719.41
2023-05-05T10:39:26.835Z,101718.91
2023-05-05T10:41:54.082Z,101711.28
2023-05-05T10:44:21.441Z,101708.88
2023-05-05T10:46:48.478Z,101705.75
2023-05-05T10:49:42.767Z,101705.88
2023-05-05T10:52:26.348Z,101701.34
2023-05-05T10:55:05.297Z,101705.75
2023-05-05T10:57:32.748Z,101704.00
2023-05-05T10:59:59.937Z,101704.41
2023-05-05T11:02:28.315Z,101709.81
2023-05-05T11:05:04.490Z,101707.41
2023-05-05T11:07:32.256Z,101703.81
2023-05-05T11:10:03.847Z,101706.84
2023-05-05T11:12:32.466Z,101707.75
2023-05-05T11:15:24.472Z,101703.59
2023-05-05T11:17:51.532Z,101704.28
2023-05-05T11:20:24.911Z,101702.94
2023-05-05T11:23:04.384Z,101686.50
2023-05-05T11:25:36.351Z,101691.28
2023-05-05T11:28:25.649Z,101689.22
2023-05-05T11:30:58.984Z,101694.81
2023-05-05T11:33:31.710Z,101691.69
2023-05-05T11:35:59.362Z,101684.56
2023-05-05T11:38:56.862Z,101687.56
2023-05-05T11:41:33.517Z,101691.31
2023-05-05T11:44:14.042Z,101691.28
2023-05-05T11:46:44.280Z,101694.47
2023-05-05T11:49:11.213Z,101697.97
2023-05-05T11:51:38.213Z,101700.28
2023-05-05T11:54:05.453Z,101706.28
2023-05-05T11:56:32.328Z,101701.34
2023-05-05T11:59:10.263Z,101701.69
2023-05-05T12:01:41.581Z,101705.59
2023-05-05T12:04:12.368Z,101707.69
2023-05-05T12:06:40.072Z,101711.03
2023-05-05T12:09:11.942Z,101700.00
2023-05-05T12:11:54.569Z,101706.16
2023-05-05T12:14:22.361Z,101703.72
2023-05-05T12:17:03.170Z,101697.63
2023-05-05T12:19:33.436Z,101698.13
2023-05-05T12:22:04.702Z,101695.94
2023-05-05T12:24:31.922Z,101682.66
2023-05-05T12:27:09.330Z,101699.47
2023-05-05T12:29:36.195Z,101693.44
2023-05-05T12:32:03.941Z,101697.34
2023-05-05T12:34:31.942Z,101689.28
2023-05-05T12:36:59.044Z,101690.09
2023-05-05T12:39:38.346Z,101687.31
2023-05-05T12:42:06.474Z,101699.19
2023-05-05T12:44:37.481Z,101695.88
2023-05-05T12:47:05.076Z,101701.31
2023-05-05T12:49:34.584Z,101715.63
2023-05-05T12:52:01.714Z,101712.97
2023-05-05T12:54:31.426Z,101857.78
2023-05-05T12:56:58.897Z,101792.00
2023-05-05T12:59:25.695Z,101775.66
2023-05-05T13:01:56.488Z,101774.50
2023-05-05T13:04:25.260Z,101729.69
2023-05-05T13:07:11.826Z,101654.34
2023-05-05T13:09:39.139Z,101709.19
2023-05-05T13:12:08.361Z,101850.41
2023-05-05T13:14:36.695Z,102014.38
2023-05-05T13:17:03.781Z,72856.34
2023-05-05T13:20:28.511Z,72856.34
2023-05-05T13:23:54.802Z,72856.34
2023-05-05T13:26:28.873Z,72856.34
2023-05-05T13:28:56.254Z,72856.34
2023-05-05T13:31:23.367Z,72856.34
2023-05-05T13:33:51.561Z,72856.34
2023-05-05T13:36:18.591Z,72856.34
2023-05-05T13:38:46.327Z,72856.34
2023-05-05T13:41:13.141Z,72856.34
2023-05-05T13:43:40.422Z,72856.34
2023-05-05T13:46:19.603Z,72856.34
2023-05-05T13:48:47.694Z,72856.34
2023-05-05T13:51:16.502Z,72856.34
2023-05-05T13:53:46.908Z,72856.34
2023-05-05T13:56:14.470Z,72856.34
2023-05-05T13:58:42.553Z,72856.34
2023-05-05T14:01:10.651Z,72856.34
2023-05-05T14:03:39.635Z,72856.34
2023-05-05T14:06:07.572Z,72856.34
2023-05-05T14:08:34.812Z,72856.34
2023-05-05T14:11:03.279Z,72856.34
2023-05-05T14:13:30.693Z,72856.34
2023-05-05T14:15:58.514Z,72856.34
2023-05-05T14:18:26.268Z,72856.34
2023-05-05T14:20:53.292Z,72856.34
2023-05-05T14:23:20.489Z,72856.34
2023-05-05T14:25:47.768Z,72856.34
2023-05-05T14:28:14.993Z,72856.34
2023-05-05T14:30:42.088Z,72856.34
2023-05-05T14:33:09.695Z,72856.34
2023-05-05T14:35:36.662Z,72856.34
2023-05-05T14:38:03.816Z,72856.34
2023-05-05T14:40:31.360Z,72856.34
2023-05-05T14:42:58.678Z,72856.34
2023-05-05T14:45:26.470Z,72856.34
2023-05-05T14:47:53.733Z,72856.34
2023-05-05T14:50:20.845Z,72856.34
2023-05-05T14:52:47.931Z,72856.34
2023-05-05T14:55:16.342Z,72856.34
2023-05-05T14:57:43.272Z,72856.34
2023-05-05T15:00:11.064Z,72856.34
2023-05-05T15:02:38.861Z,72856.34
2023-05-05T15:05:06.544Z,72856.34
2023-05-05T15:07:33.522Z,72856.34
2023-05-05T15:10:00.371Z,72856.34
2023-05-05T15:12:27.296Z,72856.34
2023-05-05T15:14:55.652Z,72856.34
2023-05-05T15:17:22.748Z,72856.34
2023-05-05T15:19:49.670Z,72856.34
2023-05-05T15:22:16.617Z,72856.34
2023-05-05T15:24:43.488Z,72856.34
2023-05-05T15:27:10.379Z,72856.34
2023-05-05T15:29:37.402Z,72856.34
2023-05-05T15:32:04.454Z,72856.34
2023-05-05T15:34:31.807Z,72856.34
2023-05-05T15:36:58.846Z,72856.34
2023-05-05T15:39:44.128Z,72856.34
2023-05-05T15:42:11.151Z,72856.34
2023-05-05T15:44:38.094Z,72856.34
2023-05-05T15:47:05.593Z,72856.34
2023-05-05T15:49:32.479Z,72856.34
2023-05-05T15:51:59.478Z,72856.34
2023-05-05T15:54:26.320Z,72856.34
2023-05-05T15:56:53.280Z,72856.34
2023-05-05T15:59:20.182Z,72856.34
2023-05-05T16:01:47.524Z,72856.34
2023-05-05T16:04:14.802Z,72856.34
2023-05-05T16:06:41.749Z,72856.34
2023-05-05T16:09:09.181Z,72856.34
2023-05-05T16:11:37.371Z,72856.34
2023-05-05T16:14:04.453Z,72856.34
2023-05-05T16:16:31.435Z,72856.34
2023-05-05T16:18:58.436Z,72856.34
2023-05-05T16:21:25.860Z,72856.34
2023-05-05T16:23:52.790Z,72856.34
2023-05-05T16:26:19.786Z,72856.34
2023-05-05T16:28:46.908Z,72856.34
2023-05-05T16:31:13.864Z,72856.34
2023-05-05T16:33:43.809Z,72856.34
2023-05-05T16:36:12.650Z,72856.34
2023-05-05T16:38:40.242Z,72856.34
2023-05-05T16:41:07.296Z,72856.34
2023-05-05T16:43:34.366Z,72856.34
2023-05-05T16:46:01.418Z,72856.34
2023-05-05T16:48:28.319Z,72856.34
2023-05-05T16:50:58.587Z,72856.34
2023-05-05T16:53:25.662Z,72856.34
2023-05-05T16:55:53.511Z,72856.34
2023-05-05T16:58:21.417Z,72856.34
2023-05-05T17:00:49.528Z,72856.34
2023-05-05T17:03:17.401Z,72856.34
2023-05-05T17:05:46.161Z,72856.34
2023-05-05T17:08:14.828Z,72856.34
2023-05-05T17:10:45.623Z,72856.34
2023-05-05T17:13:14.016Z,72856.34
2023-05-05T17:15:41.634Z,72856.34
2023-05-05T17:18:08.742Z,72856.34
2023-05-05T17:20:36.521Z,72856.34
2023-05-05T17:23:03.647Z,72856.34
2023-05-05T17:25:31.079Z,72856.34
2023-05-05T17:27:57.946Z,72856.34
2023-05-05T17:30:24.886Z,72856.34
2023-05-05T17:32:51.790Z,72856.34
2023-05-05T17:35:18.917Z,72856.34
2023-05-05T17:37:46.381Z,72856.34
2023-05-05T17:40:13.529Z,72856.34
2023-05-05T17:42:40.667Z,72856.34
2023-05-05T17:45:08.617Z,72856.34
2023-05-05T17:47:36.311Z,72856.34
2023-05-05T17:50:03.575Z,72856.34
2023-05-05T17:52:30.427Z,72856.34
2023-05-05T17:54:57.234Z,72856.34
2023-05-05T17:57:24.198Z,72856.34
2023-05-05T17:59:52.087Z,72856.34
2023-05-05T18:02:19.484Z,72856.34
2023-05-05T18:04:46.611Z,72856.34
2023-05-05T18:07:14.821Z,72856.34
2023-05-05T18:09:42.427Z,72856.34
2023-05-05T18:12:09.892Z,72856.34
2023-05-05T18:14:37.136Z,72856.34
2023-05-05T18:17:04.929Z,72856.34
2023-05-05T18:19:32.145Z,72856.34
2023-05-05T18:21:59.220Z,72856.34
2023-05-05T18:24:26.685Z,72856.34
2023-05-05T18:26:53.540Z,72856.34
2023-05-05T18:29:22.210Z,72856.34
2023-05-05T18:31:53.043Z,72856.34
2023-05-05T18:34:21.019Z,72856.34
2023-05-05T18:36:50.145Z,72856.34
2023-05-05T18:39:17.947Z,72856.34
2023-05-05T18:41:44.905Z,72856.34
2023-05-05T18:44:11.914Z,72856.34
2023-05-05T18:46:38.834Z,72856.34
2023-05-05T18:49:05.794Z,72856.34
2023-05-05T18:51:32.832Z,72856.34
2023-05-05T18:54:01.045Z,72856.34
2023-05-05T18:56:28.429Z,72856.34
2023-05-05T18:58:55.772Z,72856.34
2023-05-05T19:01:23.396Z,72856.34
2023-05-05T19:03:50.366Z,72856.34
2023-05-05T19:06:17.846Z,72856.34
2023-05-05T19:08:46.079Z,72856.34
2023-05-05T19:11:14.874Z,72856.34
2023-05-05T19:13:42.858Z,72856.34
2023-05-05T19:16:11.509Z,72856.34
2023-05-05T19:18:39.231Z,72856.34
2023-05-05T19:21:06.179Z,72856.34
2023-05-05T19:23:33.644Z,72856.34
2023-05-05T19:26:00.803Z,72856.34
2023-05-05T19:28:27.592Z,72856.34
2023-05-05T19:30:54.548Z,72856.34
2023-05-05T19:33:21.535Z,72856.34
2023-05-05T19:35:48.716Z,72856.34
2023-05-05T19:38:15.908Z,72856.34
2023-05-05T19:40:43.326Z,72856.34
2023-05-05T19:43:10.424Z,72856.34
2023-05-05T19:45:37.345Z,72856.34
2023-05-05T19:48:04.619Z,72856.34
2023-05-05T19:50:31.824Z,72856.34
2023-05-05T19:52:58.858Z,72856.34
2023-05-05T19:55:26.007Z,72856.34
2023-05-05T19:57:53.010Z,72856.34
2023-05-05T20:00:20.032Z,72856.34
2023-05-05T20:02:49.202Z,72856.34
2023-05-05T20:05:17.626Z,72856.34
2023-05-05T20:07:46.770Z,72856.34
2023-05-05T20:10:13.961Z,72856.34
2023-05-05T20:12:48.473Z,72856.34
2023-05-05T20:15:18.919Z,72856.34
2023-05-05T20:17:47.016Z,72856.34
2023-05-05T20:20:19.095Z,72856.34
2023-05-05T20:22:46.725Z,72856.34
2023-05-05T20:25:16.216Z,72856.34
2023-05-05T20:27:43.961Z,72856.34
2023-05-05T20:30:12.298Z,72856.34
2023-05-05T20:32:39.591Z,72856.34
2023-05-05T20:35:07.468Z,72856.34
2023-05-05T20:37:34.373Z,72856.34
2023-05-05T20:40:01.287Z,72856.34
2023-05-05T20:42:29.896Z,72856.34
2023-05-05T20:44:57.076Z,72856.34
2023-05-05T20:47:24.509Z,72856.34
2023-05-05T20:49:52.689Z,72856.34
2023-05-05T20:52:19.709Z,72856.34
2023-05-05T20:54:46.750Z,72856.34
2023-05-05T20:57:13.602Z,72856.34
2023-05-05T20:59:40.548Z,72856.34
2023-05-05T21:02:07.564Z,72856.34
2023-05-05T21:04:34.697Z,72856.34
2023-05-05T21:07:01.780Z,72856.34
2023-05-05T21:09:29.029Z,72856.34
2023-05-05T21:11:55.876Z,72856.34
2023-05-05T21:14:23.492Z,72856.34
2023-05-05T21:16:50.491Z,72856.34
2023-05-05T21:19:17.446Z,72856.34
2023-05-05T21:21:44.496Z,72856.34
2023-05-05T21:24:13.126Z,72856.34
2023-05-05T21:26:44.502Z,72856.34
2023-05-05T21:29:11.927Z,72856.34
2023-05-05T21:31:38.961Z,72856.34
2023-05-05T21:34:05.966Z,72856.34
2023-05-05T21:36:34.005Z,72856.34
2023-05-05T21:39:01.042Z,72856.34
2023-05-05T21:41:28.331Z,72856.34
2023-05-05T21:43:55.988Z,72856.34
2023-05-05T21:46:23.107Z,72856.34
2023-05-05T21:48:50.486Z,72856.34
2023-05-05T21:51:17.668Z,72856.34
2023-05-05T21:53:44.708Z,72856.34
2023-05-05T21:56:11.603Z,72856.34
2023-05-05T21:58:38.748Z,72856.34
2023-05-05T22:01:05.831Z,72856.34
2023-05-05T22:03:35.145Z,72856.34
2023-05-05T22:06:02.107Z,72856.34
2023-05-05T22:08:29.180Z,72856.34
2023-05-05T22:10:56.050Z,72856.34
2023-05-05T22:13:23.006Z,72856.34
2023-05-05T22:15:50.456Z,72856.34
2023-05-05T22:18:17.414Z,72856.34
2023-05-05T22:20:44.351Z,72856.34
2023-05-05T22:23:11.371Z,72856.34
2023-05-05T22:25:38.367Z,72856.34
2023-05-05T22:28:05.277Z,72856.34
2023-05-05T22:30:32.314Z,72856.34
2023-05-05T22:32:59.124Z,72856.34
2023-05-05T22:35:26.067Z,72856.34
2023-05-05T22:37:53.159Z,72856.34
2023-05-05T22:40:20.183Z,72856.34
2023-05-05T22:42:47.088Z,72856.34
2023-05-05T22:45:14.170Z,72856.34
2023-05-05T22:47:41.094Z,72856.34
2023-05-05T22:50:08.981Z,72856.34
2023-05-05T22:52:36.512Z,72856.34
2023-05-05T22:55:03.753Z,72856.34
2023-05-05T22:57:30.771Z,72856.34
2023-05-05T22:59:57.692Z,72856.34
2023-05-05T23:02:26.802Z,72856.34
2023-05-05T23:04:54.029Z,72856.34
2023-05-05T23:07:21.140Z,72856.34
2023-05-05T23:09:48.216Z,72856.34
2023-05-05T23:12:15.219Z,72856.34
2023-05-05T23:14:42.102Z,72856.34
2023-05-05T23:17:09.197Z,72856.34
2023-05-05T23:19:36.487Z,72856.34
2023-05-05T23:22:04.320Z,72856.34
2023-05-05T23:24:31.189Z,72856.34
2023-05-05T23:26:59.873Z,72856.34
2023-05-05T23:29:26.663Z,72856.34
2023-05-05T23:31:53.703Z,72856.34
2023-05-05T23:34:20.495Z,72856.34
2023-05-05T23:36:47.408Z,72856.34
2023-05-05T23:39:14.266Z,72856.34
2023-05-05T23:41:41.341Z,72856.34
2023-05-05T23:44:08.119Z,72856.34
2023-05-05T23:46:35.022Z,72856.34
2023-05-05T23:49:01.963Z,72856.34
2023-05-05T23:51:28.849Z,72856.34
2023-05-05T23:53:57.432Z,72856.34
2023-05-05T23:56:24.547Z,72856.34
2023-05-05T23:58:52.602Z,72856.34
